sensor_id;sensor_type;location;lat;lon;timestamp;pressure;altitude;pressure_sealevel;temperature;humidity
62402;BME280;48440;51.224;22.506;2023-04-28T00:01:20;99609.94;;;7.54;57.62
62402;BME280;48440;51.224;22.506;2023-04-28T00:03:46;99610.53;;;7.56;57.65
62402;BME280;48440;51.224;22.506;2023-04-28T00:06:12;99615.09;;;7.56;57.27
62402;BME280;48440;51.224;22.506;2023-04-28T00:08:38;99612.88;;;7.53;57.03
62402;BME280;48440;51.224;22.506;2023-04-28T00:11:08;99607.94;;;7.49;57.18
62402;BME280;48440;51.224;22.506;2023-04-28T00:13:33;99618.38;;;7.46;57.54
62402;BME280;48440;51.224;22.506;2023-04-28T00:15:59;99614.38;;;7.48;57.40
62402;BME280;48440;51.224;22.506;2023-04-28T00:18:25;99604.03;;;7.45;57.91
62402;BME280;48440;51.224;22.506;2023-04-28T00:20:51;99605.31;;;7.43;58.25
62402;BME280;48440;51.224;22.506;2023-04-28T00:23:16;99605.53;;;7.41;58.28
62402;BME280;48440;51.224;22.506;2023-04-28T00:25:42;99608.91;;;7.37;58.33
62402;BME280;48440;51.224;22.506;2023-04-28T00:28:07;99605.22;;;7.31;58.41
62402;BME280;48440;51.224;22.506;2023-04-28T00:30:33;99608.75;;;7.32;58.61
62402;BME280;48440;51.224;22.506;2023-04-28T00:32:58;99604.19;;;7.32;58.35
62402;BME280;48440;51.224;22.506;2023-04-28T00:35:23;99608.31;;;7.35;58.47
62402;BME280;48440;51.224;22.506;2023-04-28T00:37:49;99603.13;;;7.33;58.06
62402;BME280;48440;51.224;22.506;2023-04-28T00:40:14;99613.34;;;7.31;58.49
62402;BME280;48440;51.224;22.506;2023-04-28T00:42:40;99604.63;;;7.29;58.55
62402;BME280;48440;51.224;22.506;2023-04-28T00:45:06;99602.47;;;7.20;58.74
62402;BME280;48440;51.224;22.506;2023-04-28T00:47:32;99602.47;;;7.20;58.37
62402;BME280;48440;51.224;22.506;2023-04-28T00:50:00;99606.22;;;7.19;58.16
62402;BME280;48440;51.224;22.506;2023-04-28T00:52:26;99609.16;;;7.17;58.42
62402;BME280;48440;51.224;22.506;2023-04-28T00:54:52;99609.59;;;7.14;58.40
62402;BME280;48440;51.224;22.506;2023-04-28T00:57:18;99616.88;;;7.13;58.39
62402;BME280;48440;51.224;22.506;2023-04-28T00:59:43;99619.19;;;7.10;58.05
62402;BME280;48440;51.224;22.506;2023-04-28T01:02:09;99611.69;;;7.12;58.10
62402;BME280;48440;51.224;22.506;2023-04-28T01:04:41;99615.66;;;7.09;57.50
62402;BME280;48440;51.224;22.506;2023-04-28T01:07:07;99615.28;;;7.06;57.36
62402;BME280;48440;51.224;22.506;2023-04-28T01:09:33;99611.97;;;7.04;57.81
62402;BME280;48440;51.224;22.506;2023-04-28T01:11:58;99612.47;;;7.01;57.18
62402;BME280;48440;51.224;22.506;2023-04-28T01:14:24;99616.44;;;6.98;57.46
62402;BME280;48440;51.224;22.506;2023-04-28T01:16:50;99615.59;;;6.98;57.85
62402;BME280;48440;51.224;22.506;2023-04-28T01:19:24;99614.16;;;6.95;57.69
62402;BME280;48440;51.224;22.506;2023-04-28T01:21:50;99616.88;;;6.95;57.43
62402;BME280;48440;51.224;22.506;2023-04-28T01:24:15;99613.56;;;6.93;57.91
62402;BME280;48440;51.224;22.506;2023-04-28T01:26:41;99612.34;;;6.89;57.98
62402;BME280;48440;51.224;22.506;2023-04-28T01:29:07;99615.13;;;6.82;57.56
62402;BME280;48440;51.224;22.506;2023-04-28T01:31:32;99616.38;;;6.80;57.78
62402;BME280;48440;51.224;22.506;2023-04-28T01:33:58;99617.81;;;6.82;58.20
62402;BME280;48440;51.224;22.506;2023-04-28T01:36:23;99608.72;;;6.77;58.07
62402;BME280;48440;51.224;22.506;2023-04-28T01:38:50;99608.44;;;6.67;58.75
62402;BME280;48440;51.224;22.506;2023-04-28T01:41:15;99609.69;;;6.64;58.40
62402;BME280;48440;51.224;22.506;2023-04-28T01:43:41;99603.91;;;6.61;58.45
62402;BME280;48440;51.224;22.506;2023-04-28T01:46:08;99610.13;;;6.61;58.43
62402;BME280;48440;51.224;22.506;2023-04-28T01:48:34;99606.84;;;6.59;58.35
62402;BME280;48440;51.224;22.506;2023-04-28T01:50:59;99615.81;;;6.53;58.52
62402;BME280;48440;51.224;22.506;2023-04-28T01:53:25;99616.50;;;6.49;58.79
62402;BME280;48440;51.224;22.506;2023-04-28T01:55:50;99617.75;;;6.46;58.98
62402;BME280;48440;51.224;22.506;2023-04-28T01:58:16;99622.53;;;6.44;58.83
62402;BME280;48440;51.224;22.506;2023-04-28T02:00:41;99609.06;;;6.44;58.87
62402;BME280;48440;51.224;22.506;2023-04-28T02:03:07;99617.59;;;6.41;59.22
62402;BME280;48440;51.224;22.506;2023-04-28T02:05:32;99621.28;;;6.46;58.84
62402;BME280;48440;51.224;22.506;2023-04-28T02:07:57;99616.94;;;6.45;58.63
62402;BME280;48440;51.224;22.506;2023-04-28T02:10:23;99618.72;;;6.52;58.83
62402;BME280;48440;51.224;22.506;2023-04-28T02:12:48;99622.03;;;6.54;58.76
62402;BME280;48440;51.224;22.506;2023-04-28T02:15:14;99622.94;;;6.47;59.10
62402;BME280;48440;51.224;22.506;2023-04-28T02:17:39;99622.94;;;6.47;58.66
62402;BME280;48440;51.224;22.506;2023-04-28T02:20:05;99633.50;;;6.49;58.80
62402;BME280;48440;51.224;22.506;2023-04-28T02:22:31;99632.88;;;6.47;58.96
62402;BME280;48440;51.224;22.506;2023-04-28T02:24:57;99631.75;;;6.55;58.44
62402;BME280;48440;51.224;22.506;2023-04-28T02:27:25;99628.19;;;6.61;58.40
62402;BME280;48440;51.224;22.506;2023-04-28T02:29:51;99638.38;;;6.59;58.85
62402;BME280;48440;51.224;22.506;2023-04-28T02:32:16;99629.84;;;6.62;59.10
62402;BME280;48440;51.224;22.506;2023-04-28T02:34:42;99631.50;;;6.63;59.07
62402;BME280;48440;51.224;22.506;2023-04-28T02:37:07;99633.97;;;6.64;59.08
62402;BME280;48440;51.224;22.506;2023-04-28T02:39:33;99638.94;;;6.67;59.29
62402;BME280;48440;51.224;22.506;2023-04-28T02:41:58;99633.75;;;6.66;58.94
62402;BME280;48440;51.224;22.506;2023-04-28T02:44:24;99644.53;;;6.66;59.11
62402;BME280;48440;51.224;22.506;2023-04-28T02:46:49;99635.19;;;6.68;59.42
62402;BME280;48440;51.224;22.506;2023-04-28T02:49:15;99638.50;;;6.70;59.53
62402;BME280;48440;51.224;22.506;2023-04-28T02:51:40;99641.63;;;6.67;59.62
62402;BME280;48440;51.224;22.506;2023-04-28T02:54:06;99633.31;;;6.69;59.42
62402;BME280;48440;51.224;22.506;2023-04-28T02:56:32;99636.00;;;6.69;59.80
62402;BME280;48440;51.224;22.506;2023-04-28T02:58:58;99636.00;;;6.69;59.95
62402;BME280;48440;51.224;22.506;2023-04-28T03:01:23;99638.09;;;6.67;59.81
62402;BME280;48440;51.224;22.506;2023-04-28T03:03:49;99638.72;;;6.69;59.49
62402;BME280;48440;51.224;22.506;2023-04-28T03:06:14;99643.88;;;6.70;59.72
62402;BME280;48440;51.224;22.506;2023-04-28T03:08:40;99644.50;;;6.72;58.99
62402;BME280;48440;51.224;22.506;2023-04-28T03:11:05;99644.63;;;6.77;59.29
62402;BME280;48440;51.224;22.506;2023-04-28T03:13:31;99651.53;;;6.73;59.36
62402;BME280;48440;51.224;22.506;2023-04-28T03:15:56;99652.19;;;6.69;59.58
62402;BME280;48440;51.224;22.506;2023-04-28T03:18:22;99654.28;;;6.67;59.89
62402;BME280;48440;51.224;22.506;2023-04-28T03:20:48;99649.16;;;6.59;60.29
62402;BME280;48440;51.224;22.506;2023-04-28T03:23:14;99654.38;;;6.54;60.11
62402;BME280;48440;51.224;22.506;2023-04-28T03:25:40;99657.97;;;6.47;60.69
62402;BME280;48440;51.224;22.506;2023-04-28T03:28:05;99659.78;;;6.54;59.94
62402;BME280;48440;51.224;22.506;2023-04-28T03:30:31;99656.31;;;6.46;60.27
62402;BME280;48440;51.224;22.506;2023-04-28T03:32:56;99654.94;;;6.37;60.29
62402;BME280;48440;51.224;22.506;2023-04-28T03:35:22;99654.53;;;6.34;60.60
62402;BME280;48440;51.224;22.506;2023-04-28T03:37:50;99652.66;;;6.34;60.78
62402;BME280;48440;51.224;22.506;2023-04-28T03:40:16;99649.97;;;6.34;61.21
62402;BME280;48440;51.224;22.506;2023-04-28T03:42:42;99654.31;;;6.35;61.06
62402;BME280;48440;51.224;22.506;2023-04-28T03:45:08;99660.31;;;6.37;61.13
62402;BME280;48440;51.224;22.506;2023-04-28T03:47:33;99663.41;;;6.41;61.61
62402;BME280;48440;51.224;22.506;2023-04-28T03:49:59;99661.53;;;6.41;61.56
62402;BME280;48440;51.224;22.506;2023-04-28T03:52:25;99662.81;;;6.39;61.47
62402;BME280;48440;51.224;22.506;2023-04-28T03:54:51;99662.81;;;6.39;61.10
62402;BME280;48440;51.224;22.506;2023-04-28T03:57:19;99665.28;;;6.40;61.30
62402;BME280;48440;51.224;22.506;2023-04-28T03:59:45;99671.72;;;6.39;61.03
62402;BME280;48440;51.224;22.506;2023-04-28T04:02:10;99682.28;;;6.41;60.82
62402;BME280;48440;51.224;22.506;2023-04-28T04:04:36;99678.97;;;6.39;61.29
62402;BME280;48440;51.224;22.506;2023-04-28T04:07:01;99672.50;;;6.46;61.01
62402;BME280;48440;51.224;22.506;2023-04-28T04:09:28;99677.50;;;6.43;61.11
62402;BME280;48440;51.224;22.506;2023-04-28T04:11:53;99678.66;;;6.54;60.58
62402;BME280;48440;51.224;22.506;2023-04-28T04:14:19;99681.72;;;6.57;60.32
62402;BME280;48440;51.224;22.506;2023-04-28T04:16:45;99685.44;;;6.63;60.17
62402;BME280;48440;51.224;22.506;2023-04-28T04:19:11;99683.16;;;6.60;60.78
62402;BME280;48440;51.224;22.506;2023-04-28T04:21:37;99683.78;;;6.62;61.06
62402;BME280;48440;51.224;22.506;2023-04-28T04:24:02;99685.16;;;6.71;60.61
62402;BME280;48440;51.224;22.506;2023-04-28T04:26:28;99684.16;;;6.65;60.52
62402;BME280;48440;51.224;22.506;2023-04-28T04:28:53;99686.59;;;6.73;60.35
62402;BME280;48440;51.224;22.506;2023-04-28T04:31:19;99685.09;;;6.77;60.40
62402;BME280;48440;51.224;22.506;2023-04-28T04:33:44;99689.66;;;6.77;60.99
62402;BME280;48440;51.224;22.506;2023-04-28T04:36:10;99686.47;;;6.87;60.84
62402;BME280;48440;51.224;22.506;2023-04-28T04:38:35;99693.41;;;7.01;60.30
62402;BME280;48440;51.224;22.506;2023-04-28T04:41:01;99688.75;;;7.08;60.43
62402;BME280;48440;51.224;22.506;2023-04-28T04:43:26;99692.16;;;7.40;59.44
62402;BME280;48440;51.224;22.506;2023-04-28T04:45:52;99695.69;;;7.59;59.42
62402;BME280;48440;51.224;22.506;2023-04-28T04:48:17;99688.75;;;7.81;58.68
62402;BME280;48440;51.224;22.506;2023-04-28T04:50:42;99688.38;;;7.96;58.08
62402;BME280;48440;51.224;22.506;2023-04-28T04:53:08;99693.34;;;8.10;57.50
62402;BME280;48440;51.224;22.506;2023-04-28T04:55:34;99690.56;;;8.17;56.92
62402;BME280;48440;51.224;22.506;2023-04-28T04:57:59;99694.19;;;8.41;55.31
62402;BME280;48440;51.224;22.506;2023-04-28T05:00:25;99694.34;;;8.46;54.39
62402;BME280;48440;51.224;22.506;2023-04-28T05:02:51;99699.75;;;8.58;54.84
62402;BME280;48440;51.224;22.506;2023-04-28T05:05:16;99692.97;;;8.67;55.13
62402;BME280;48440;51.224;22.506;2023-04-28T05:07:42;99700.66;;;8.81;54.06
62402;BME280;48440;51.224;22.506;2023-04-28T05:10:08;99689.47;;;9.13;53.82
62402;BME280;48440;51.224;22.506;2023-04-28T05:12:35;99695.09;;;9.46;52.53
62402;BME280;48440;51.224;22.506;2023-04-28T05:15:01;99695.88;;;9.70;51.24
62402;BME280;48440;51.224;22.506;2023-04-28T05:17:26;99694.50;;;9.96;51.03
62402;BME280;48440;51.224;22.506;2023-04-28T05:19:52;99700.31;;;10.16;49.75
62402;BME280;48440;51.224;22.506;2023-04-28T05:22:17;99701.63;;;10.42;50.03
62402;BME280;48440;51.224;22.506;2023-04-28T05:24:42;99694.25;;;10.54;49.92
62402;BME280;48440;51.224;22.506;2023-04-28T05:27:08;99700.91;;;10.47;47.96
62402;BME280;48440;51.224;22.506;2023-04-28T05:29:33;99702.00;;;10.79;48.32
62402;BME280;48440;51.224;22.506;2023-04-28T05:31:59;99704.97;;;11.11;47.44
62402;BME280;48440;51.224;22.506;2023-04-28T05:34:24;99702.56;;;11.32;46.52
62402;BME280;48440;51.224;22.506;2023-04-28T05:36:51;99700.88;;;11.47;46.42
62402;BME280;48440;51.224;22.506;2023-04-28T05:39:17;99700.44;;;11.55;45.48
62402;BME280;48440;51.224;22.506;2023-04-28T05:41:42;99704.50;;;11.75;45.73
62402;BME280;48440;51.224;22.506;2023-04-28T05:44:07;99706.47;;;12.01;45.24
62402;BME280;48440;51.224;22.506;2023-04-28T05:46:33;99707.53;;;12.22;44.67
62402;BME280;48440;51.224;22.506;2023-04-28T05:48:59;99711.31;;;12.48;44.06
62402;BME280;48440;51.224;22.506;2023-04-28T05:51:24;99715.56;;;12.61;43.20
62402;BME280;48440;51.224;22.506;2023-04-28T05:53:51;99712.75;;;12.82;43.32
62402;BME280;48440;51.224;22.506;2023-04-28T05:56:16;99711.00;;;12.98;41.47
62402;BME280;48440;51.224;22.506;2023-04-28T05:58:42;99708.47;;;12.91;40.65
62402;BME280;48440;51.224;22.506;2023-04-28T06:01:11;99707.66;;;13.28;40.53
62402;BME280;48440;51.224;22.506;2023-04-28T06:03:37;99710.00;;;13.14;39.79
62402;BME280;48440;51.224;22.506;2023-04-28T06:06:05;99709.41;;;13.07;40.65
62402;BME280;48440;51.224;22.506;2023-04-28T06:08:30;99715.41;;;13.09;41.07
62402;BME280;48440;51.224;22.506;2023-04-28T06:10:56;99716.19;;;13.05;41.75
62402;BME280;48440;51.224;22.506;2023-04-28T06:13:21;99723.28;;;12.74;41.01
62402;BME280;48440;51.224;22.506;2023-04-28T06:15:46;99718.59;;;12.96;41.92
62402;BME280;48440;51.224;22.506;2023-04-28T06:18:12;99713.38;;;13.27;41.43
62402;BME280;48440;51.224;22.506;2023-04-28T06:20:37;99708.19;;;13.67;40.91
62402;BME280;48440;51.224;22.506;2023-04-28T06:23:03;99704.16;;;13.85;37.83
62402;BME280;48440;51.224;22.506;2023-04-28T06:25:28;99709.09;;;13.88;37.80
62402;BME280;48440;51.224;22.506;2023-04-28T06:27:54;99710.00;;;14.14;38.15
62402;BME280;48440;51.224;22.506;2023-04-28T06:30:21;99712.97;;;14.07;36.72
62402;BME280;48440;51.224;22.506;2023-04-28T06:32:47;99707.34;;;14.29;36.90
62402;BME280;48440;51.224;22.506;2023-04-28T06:35:14;99709.31;;;14.59;36.19
62402;BME280;48440;51.224;22.506;2023-04-28T06:37:40;99715.34;;;14.71;36.40
62402;BME280;48440;51.224;22.506;2023-04-28T06:40:07;99718.91;;;14.82;36.50
62402;BME280;48440;51.224;22.506;2023-04-28T06:42:32;99723.81;;;14.85;39.54
62402;BME280;48440;51.224;22.506;2023-04-28T06:44:58;99712.63;;;14.81;41.62
62402;BME280;48440;51.224;22.506;2023-04-28T06:47:23;99715.81;;;14.38;40.59
62402;BME280;48440;51.224;22.506;2023-04-28T06:49:49;99720.56;;;13.38;41.89
62402;BME280;48440;51.224;22.506;2023-04-28T06:52:15;99723.06;;;13.44;42.80
62402;BME280;48440;51.224;22.506;2023-04-28T06:54:40;99722.72;;;13.88;40.97
62402;BME280;48440;51.224;22.506;2023-04-28T06:57:06;99720.63;;;14.10;42.12
62402;BME280;48440;51.224;22.506;2023-04-28T06:59:31;99724.25;;;14.26;43.42
62402;BME280;48440;51.224;22.506;2023-04-28T07:01:57;99727.88;;;14.57;40.83
62402;BME280;48440;51.224;22.506;2023-04-28T07:04:23;99728.19;;;14.66;38.54
62402;BME280;48440;51.224;22.506;2023-04-28T07:06:51;99729.84;;;14.97;38.82
62402;BME280;48440;51.224;22.506;2023-04-28T07:09:17;99727.38;;;15.16;35.58
62402;BME280;48440;51.224;22.506;2023-04-28T07:11:43;99730.38;;;15.30;36.31
62402;BME280;48440;51.224;22.506;2023-04-28T07:14:08;99721.38;;;15.29;35.70
62402;BME280;48440;51.224;22.506;2023-04-28T07:16:35;99731.72;;;15.37;36.53
62402;BME280;48440;51.224;22.506;2023-04-28T07:19:00;99722.97;;;15.50;38.06
62402;BME280;48440;51.224;22.506;2023-04-28T07:21:26;99722.69;;;15.62;38.57
62402;BME280;48440;51.224;22.506;2023-04-28T07:23:52;99719.13;;;15.67;36.43
62402;BME280;48440;51.224;22.506;2023-04-28T07:26:24;99725.66;;;15.81;36.34
62402;BME280;48440;51.224;22.506;2023-04-28T07:28:49;99726.16;;;15.93;36.26
62402;BME280;48440;51.224;22.506;2023-04-28T07:31:15;99718.09;;;15.27;34.97
62402;BME280;48440;51.224;22.506;2023-04-28T07:33:41;99724.06;;;14.53;37.15
62402;BME280;48440;51.224;22.506;2023-04-28T07:36:06;99721.69;;;13.94;38.43
62402;BME280;48440;51.224;22.506;2023-04-28T07:38:35;99724.31;;;13.32;39.89
62402;BME280;48440;51.224;22.506;2023-04-28T07:41:04;99732.28;;;13.06;39.13
62402;BME280;48440;51.224;22.506;2023-04-28T07:43:30;99730.06;;;12.98;37.33
62402;BME280;48440;51.224;22.506;2023-04-28T07:45:55;99730.03;;;13.30;36.44
62402;BME280;48440;51.224;22.506;2023-04-28T07:48:21;99713.13;;;13.28;34.83
62402;BME280;48440;51.224;22.506;2023-04-28T07:50:50;99722.47;;;13.05;37.60
62402;BME280;48440;51.224;22.506;2023-04-28T07:53:15;99722.56;;;12.83;40.97
62402;BME280;48440;51.224;22.506;2023-04-28T07:55:41;99722.13;;;12.65;38.07
62402;BME280;48440;51.224;22.506;2023-04-28T07:58:07;99717.88;;;12.47;34.90
62402;BME280;48440;51.224;22.506;2023-04-28T08:00:33;99718.91;;;12.41;33.80
62402;BME280;48440;51.224;22.506;2023-04-28T08:02:58;99724.34;;;12.41;34.04
62402;BME280;48440;51.224;22.506;2023-04-28T08:05:24;99718.66;;;12.42;32.75
62402;BME280;48440;51.224;22.506;2023-04-28T08:07:49;99721.75;;;12.56;34.15
62402;BME280;48440;51.224;22.506;2023-04-28T08:10:15;99725.94;;;12.64;32.64
62402;BME280;48440;51.224;22.506;2023-04-28T08:12:40;99720.81;;;12.99;30.98
62402;BME280;48440;51.224;22.506;2023-04-28T08:15:09;99713.41;;;13.32;32.26
62402;BME280;48440;51.224;22.506;2023-04-28T08:17:34;99714.16;;;13.64;30.50
62402;BME280;48440;51.224;22.506;2023-04-28T08:20:00;99710.16;;;13.82;28.97
62402;BME280;48440;51.224;22.506;2023-04-28T08:22:26;99711.94;;;13.56;28.39
62402;BME280;48440;51.224;22.506;2023-04-28T08:24:51;99707.19;;;13.36;30.48
62402;BME280;48440;51.224;22.506;2023-04-28T08:27:16;99716.78;;;13.12;30.83
62402;BME280;48440;51.224;22.506;2023-04-28T08:29:42;99719.78;;;12.78;28.46
62402;BME280;48440;51.224;22.506;2023-04-28T08:32:08;99720.69;;;12.57;29.14
62402;BME280;48440;51.224;22.506;2023-04-28T08:34:34;99711.91;;;12.50;29.65
62402;BME280;48440;51.224;22.506;2023-04-28T08:37:00;99708.06;;;12.73;29.92
62402;BME280;48440;51.224;22.506;2023-04-28T08:39:26;99708.28;;;13.03;31.10
62402;BME280;48440;51.224;22.506;2023-04-28T08:41:52;99714.72;;;13.19;33.06
62402;BME280;48440;51.224;22.506;2023-04-28T08:44:18;99705.72;;;13.18;32.89
62402;BME280;48440;51.224;22.506;2023-04-28T08:46:45;99704.25;;;13.11;31.42
62402;BME280;48440;51.224;22.506;2023-04-28T08:49:16;99708.78;;;13.00;31.45
62402;BME280;48440;51.224;22.506;2023-04-28T08:51:49;99707.91;;;12.89;32.79
62402;BME280;48440;51.224;22.506;2023-04-28T08:54:15;99710.72;;;12.68;32.44
62402;BME280;48440;51.224;22.506;2023-04-28T08:56:41;99716.94;;;12.63;33.35
62402;BME280;48440;51.224;22.506;2023-04-28T08:59:10;99715.41;;;12.45;33.30
62402;BME280;48440;51.224;22.506;2023-04-28T09:01:35;99709.41;;;12.43;32.71
62402;BME280;48440;51.224;22.506;2023-04-28T09:04:01;99703.38;;;12.68;33.53
62402;BME280;48440;51.224;22.506;2023-04-28T09:06:31;99696.13;;;13.58;35.83
62402;BME280;48440;51.224;22.506;2023-04-28T09:09:26;99697.75;;;14.32;32.71
62402;BME280;48440;51.224;22.506;2023-04-28T09:14:22;99699.22;;;15.15;29.94
62402;BME280;48440;51.224;22.506;2023-04-28T09:16:48;99704.97;;;15.24;29.08
62402;BME280;48440;51.224;22.506;2023-04-28T09:19:14;99699.50;;;14.83;28.97
62402;BME280;48440;51.224;22.506;2023-04-28T09:21:54;99685.56;;;14.44;29.62
62402;BME280;48440;51.224;22.506;2023-04-28T09:24:30;99690.63;;;14.10;29.66
62402;BME280;48440;51.224;22.506;2023-04-28T09:26:57;99680.69;;;13.79;30.00
62402;BME280;48440;51.224;22.506;2023-04-28T09:29:23;99681.22;;;13.71;30.33
62402;BME280;48440;51.224;22.506;2023-04-28T09:31:51;99679.03;;;13.73;29.81
62402;BME280;48440;51.224;22.506;2023-04-28T09:34:18;99679.16;;;14.08;30.12
62402;BME280;48440;51.224;22.506;2023-04-28T09:36:43;99677.25;;;14.14;29.92
62402;BME280;48440;51.224;22.506;2023-04-28T09:39:09;99681.63;;;14.15;30.56
62402;BME280;48440;51.224;22.506;2023-04-28T09:41:38;99678.34;;;14.03;30.35
62402;BME280;48440;51.224;22.506;2023-04-28T09:44:16;99681.00;;;13.87;31.21
62402;BME280;48440;51.224;22.506;2023-04-28T09:46:43;99670.38;;;13.91;30.73
62402;BME280;48440;51.224;22.506;2023-04-28T09:49:10;99674.56;;;14.34;31.14
62402;BME280;48440;51.224;22.506;2023-04-28T09:51:35;99670.56;;;15.03;31.28
62402;BME280;48440;51.224;22.506;2023-04-28T09:54:01;99677.06;;;15.27;29.95
62402;BME280;48440;51.224;22.506;2023-04-28T09:56:28;99670.44;;;15.53;29.05
62402;BME280;48440;51.224;22.506;2023-04-28T09:58:57;99662.47;;;15.72;27.93
62402;BME280;48440;51.224;22.506;2023-04-28T10:01:24;99658.19;;;16.10;28.22
62402;BME280;48440;51.224;22.506;2023-04-28T10:03:52;99660.44;;;15.98;29.09
62402;BME280;48440;51.224;22.506;2023-04-28T10:06:18;99660.41;;;16.08;29.63
62402;BME280;48440;51.224;22.506;2023-04-28T10:08:44;99661.97;;;16.14;30.41
62402;BME280;48440;51.224;22.506;2023-04-28T10:11:14;99654.13;;;16.03;30.52
62402;BME280;48440;51.224;22.506;2023-04-28T10:13:41;99651.50;;;15.82;30.09
62402;BME280;48440;51.224;22.506;2023-04-28T10:16:09;99643.66;;;15.50;31.67
62402;BME280;48440;51.224;22.506;2023-04-28T10:18:35;99652.22;;;15.13;31.13
62402;BME280;48440;51.224;22.506;2023-04-28T10:21:02;99656.34;;;14.85;30.47
62402;BME280;48440;51.224;22.506;2023-04-28T10:26:19;99651.13;;;15.14;30.47
62402;BME280;48440;51.224;22.506;2023-04-28T10:28:47;99650.25;;;15.39;30.16
62402;BME280;48440;51.224;22.506;2023-04-28T10:31:20;99643.94;;;15.59;30.72
62402;BME280;48440;51.224;22.506;2023-04-28T10:33:47;99641.59;;;15.91;34.20
62402;BME280;48440;51.224;22.506;2023-04-28T10:39:16;99633.31;;;16.07;30.15
62402;BME280;48440;51.224;22.506;2023-04-28T10:41:44;99627.91;;;15.86;30.04
62402;BME280;48440;51.224;22.506;2023-04-28T10:44:40;99627.09;;;15.86;30.85
62402;BME280;48440;51.224;22.506;2023-04-28T10:47:07;99619.81;;;15.66;29.35
62402;BME280;48440;51.224;22.506;2023-04-28T11:00:45;99607.56;;;15.48;29.82
62402;BME280;48440;51.224;22.506;2023-04-28T11:03:41;99605.13;;;15.37;30.08
62402;BME280;48440;51.224;22.506;2023-04-28T11:06:22;99596.44;;;15.14;30.54
62402;BME280;48440;51.224;22.506;2023-04-28T11:13:50;99595.47;;;14.54;31.22
62402;BME280;48440;51.224;22.506;2023-04-28T11:16:19;99600.38;;;14.42;31.10
62402;BME280;48440;51.224;22.506;2023-04-28T11:18:49;99590.81;;;14.50;31.20
62402;BME280;48440;51.224;22.506;2023-04-28T11:21:18;99600.63;;;14.61;32.43
62402;BME280;48440;51.224;22.506;2023-04-28T11:23:45;99592.16;;;14.78;31.56
62402;BME280;48440;51.224;22.506;2023-04-28T11:26:10;99587.53;;;14.78;31.77
62402;BME280;48440;51.224;22.506;2023-04-28T11:28:48;99585.88;;;14.77;32.42
62402;BME280;48440;51.224;22.506;2023-04-28T11:31:16;99580.97;;;14.69;32.36
62402;BME280;48440;51.224;22.506;2023-04-28T11:34:02;99587.25;;;14.44;31.32
62402;BME280;48440;51.224;22.506;2023-04-28T11:36:34;99585.03;;;14.36;30.91
62402;BME280;48440;51.224;22.506;2023-04-28T11:39:04;99586.69;;;14.27;31.45
62402;BME280;48440;51.224;22.506;2023-04-28T11:41:32;99580.97;;;14.29;33.04
62402;BME280;48440;51.224;22.506;2023-04-28T11:43:59;99586.13;;;14.30;32.41
62402;BME280;48440;51.224;22.506;2023-04-28T11:46:25;99582.06;;;14.43;33.11
62402;BME280;48440;51.224;22.506;2023-04-28T11:49:04;99578.50;;;14.68;33.49
62402;BME280;48440;51.224;22.506;2023-04-28T11:51:35;99580.66;;;14.91;32.62
62402;BME280;48440;51.224;22.506;2023-04-28T11:54:01;99578.72;;;15.07;33.09
62402;BME280;48440;51.224;22.506;2023-04-28T11:56:28;99567.25;;;15.05;32.82
62402;BME280;48440;51.224;22.506;2023-04-28T11:59:10;99572.69;;;15.10;33.70
62402;BME280;48440;51.224;22.506;2023-04-28T12:01:52;99569.41;;;15.08;33.71
62402;BME280;48440;51.224;22.506;2023-04-28T12:07:16;99573.28;;;14.81;30.98
62402;BME280;48440;51.224;22.506;2023-04-28T12:09:43;99565.41;;;14.70;31.76
62402;BME280;48440;51.224;22.506;2023-04-28T12:12:11;99567.88;;;14.51;32.32
62402;BME280;48440;51.224;22.506;2023-04-28T12:17:23;99564.59;;;14.29;31.88
62402;BME280;48440;51.224;22.506;2023-04-28T12:19:49;99570.28;;;14.17;30.67
62402;BME280;48440;51.224;22.506;2023-04-28T12:22:14;99558.28;;;13.98;31.22
62402;BME280;48440;51.224;22.506;2023-04-28T12:24:41;99555.75;;;13.81;31.67
62402;BME280;48440;51.224;22.506;2023-04-28T12:27:20;99554.38;;;13.78;32.30
62402;BME280;48440;51.224;22.506;2023-04-28T12:29:50;99556.31;;;13.73;32.70
62402;BME280;48440;51.224;22.506;2023-04-28T12:32:16;99555.47;;;13.67;32.27
62402;BME280;48440;51.224;22.506;2023-04-28T12:34:45;99543.75;;;13.72;31.25
62402;BME280;48440;51.224;22.506;2023-04-28T12:37:11;99545.13;;;13.74;31.93
62402;BME280;48440;51.224;22.506;2023-04-28T12:39:38;99536.94;;;13.84;32.43
62402;BME280;48440;51.224;22.506;2023-04-28T12:42:05;99542.97;;;13.91;33.27
62402;BME280;48440;51.224;22.506;2023-04-28T12:44:32;99539.97;;;14.08;34.83
62402;BME280;48440;51.224;22.506;2023-04-28T12:47:05;99527.72;;;14.11;33.84
62402;BME280;48440;51.224;22.506;2023-04-28T12:49:31;99532.34;;;14.00;33.10
62402;BME280;48440;51.224;22.506;2023-04-28T12:51:57;99529.84;;;13.83;32.19
62402;BME280;48440;51.224;22.506;2023-04-28T12:54:36;99524.41;;;13.83;32.38
62402;BME280;48440;51.224;22.506;2023-04-28T13:00:36;99514.03;;;13.80;32.79
62402;BME280;48440;51.224;22.506;2023-04-28T13:03:02;99517.88;;;13.74;32.93
62402;BME280;48440;51.224;22.506;2023-04-28T13:05:54;99520.53;;;13.49;33.17
62402;BME280;48440;51.224;22.506;2023-04-28T13:21:27;99513.69;;;13.51;33.13
62402;BME280;48440;51.224;22.506;2023-04-28T13:23:53;99509.88;;;13.52;33.01
62402;BME280;48440;51.224;22.506;2023-04-28T13:26:19;99505.25;;;13.43;32.68
62402;BME280;48440;51.224;22.506;2023-04-28T13:28:48;99503.31;;;13.38;32.72
62402;BME280;48440;51.224;22.506;2023-04-28T13:31:13;99506.03;;;13.33;33.06
62402;BME280;48440;51.224;22.506;2023-04-28T13:33:39;99498.69;;;13.39;33.55
62402;BME280;48440;51.224;22.506;2023-04-28T13:36:05;99495.19;;;13.48;35.32
62402;BME280;48440;51.224;22.506;2023-04-28T13:38:33;99490.28;;;13.50;35.95
62402;BME280;48440;51.224;22.506;2023-04-28T13:40:59;99488.09;;;13.57;36.74